sensor_id;sensor_type;location;lat;lon;timestamp;P1;durP1;ratioP1;P2;durP2;ratioP2
49784;SDS011;35679;38.732;-121.358;2023-05-02T00:01:00;2.75;;;2.00;;
49784;SDS011;35679;38.732;-121.358;2023-05-02T00:03:52;2.10;;;1.90;;
49784;SDS011;35679;38.732;-121.358;2023-05-02T00:06:42;1.90;;;1.80;;
49784;SDS011;35679;38.732;-121.358;2023-05-02T00:09:33;2.00;;;1.90;;
49784;SDS011;35679;38.732;-121.358;2023-05-02T00:12:23;2.10;;;1.95;;
49784;SDS011;35679;38.732;-121.358;2023-05-02T00:15:12;1.85;;;1.85;;
49784;SDS011;35679;38.732;-121.358;2023-05-02T00:18:01;2.25;;;2.05;;
49784;SDS011;35679;38.732;-121.358;2023-05-02T00:20:51;1.92;;;1.83;;
49784;SDS011;35679;38.732;-121.358;2023-05-02T00:23:40;2.58;;;2.00;;
49784;SDS011;35679;38.732;-121.358;2023-05-02T00:26:29;1.83;;;1.73;;
49784;SDS011;35679;38.732;-121.358;2023-05-02T00:29:19;2.60;;;1.95;;
49784;SDS011;35679;38.732;-121.358;2023-05-02T00:32:08;1.70;;;1.70;;
49784;SDS011;35679;38.732;-121.358;2023-05-02T00:34:58;2.22;;;1.95;;
49784;SDS011;35679;38.732;-121.358;2023-05-02T00:37:48;2.28;;;1.90;;
49784;SDS011;35679;38.732;-121.358;2023-05-02T00:40:47;2.00;;;1.90;;
49784;SDS011;35679;38.732;-121.358;2023-05-02T00:43:39;3.15;;;1.75;;
49784;SDS011;35679;38.732;-121.358;2023-05-02T00:46:29;5.85;;;2.30;;
49784;SDS011;35679;38.732;-121.358;2023-05-02T00:49:18;3.90;;;2.30;;
49784;SDS011;35679;38.732;-121.358;2023-05-02T00:52:08;6.95;;;2.38;;
49784;SDS011;35679;38.732;-121.358;2023-05-02T00:54:58;2.75;;;2.15;;
49784;SDS011;35679;38.732;-121.358;2023-05-02T00:57:49;2.25;;;1.77;;
49784;SDS011;35679;38.732;-121.358;2023-05-02T01:00:41;3.50;;;2.20;;
49784;SDS011;35679;38.732;-121.358;2023-05-02T01:15:57;5.18;;;2.80;;
49784;SDS011;35679;38.732;-121.358;2023-05-02T01:18:48;4.68;;;2.67;;
49784;SDS011;35679;38.732;-121.358;2023-05-02T01:21:39;8.68;;;3.55;;
49784;SDS011;35679;38.732;-121.358;2023-05-02T01:24:34;10.73;;;3.10;;
49784;SDS011;35679;38.732;-121.358;2023-05-02T01:30:45;3.33;;;2.00;;
49784;SDS011;35679;38.732;-121.358;2023-05-02T01:33:38;3.63;;;2.45;;
49784;SDS011;35679;38.732;-121.358;2023-05-02T01:36:30;3.17;;;2.30;;
49784;SDS011;35679;38.732;-121.358;2023-05-02T01:39:21;6.20;;;2.35;;
49784;SDS011;35679;38.732;-121.358;2023-05-02T01:42:13;6.00;;;2.40;;
49784;SDS011;35679;38.732;-121.358;2023-05-02T01:45:04;2.33;;;2.20;;
49784;SDS011;35679;38.732;-121.358;2023-05-02T01:47:55;3.95;;;2.13;;
49784;SDS011;35679;38.732;-121.358;2023-05-02T01:50:46;3.42;;;2.20;;
49784;SDS011;35679;38.732;-121.358;2023-05-02T01:53:37;4.43;;;2.30;;
49784;SDS011;35679;38.732;-121.358;2023-05-02T01:56:28;2.72;;;2.13;;
49784;SDS011;35679;38.732;-121.358;2023-05-02T01:59:21;3.65;;;2.30;;
49784;SDS011;35679;38.732;-121.358;2023-05-02T02:02:12;4.22;;;2.30;;
49784;SDS011;35679;38.732;-121.358;2023-05-02T02:05:04;3.08;;;2.13;;
49784;SDS011;35679;38.732;-121.358;2023-05-02T02:07:55;2.55;;;2.05;;
49784;SDS011;35679;38.732;-121.358;2023-05-02T02:10:48;3.92;;;2.00;;
49784;SDS011;35679;38.732;-121.358;2023-05-02T02:13:48;4.65;;;2.22;;
49784;SDS011;35679;38.732;-121.358;2023-05-02T02:16:40;2.03;;;1.90;;
49784;SDS011;35679;38.732;-121.358;2023-05-02T02:19:31;2.40;;;1.90;;
49784;SDS011;35679;38.732;-121.358;2023-05-02T02:22:22;2.70;;;2.50;;
49784;SDS011;35679;38.732;-121.358;2023-05-02T02:25:15;3.28;;;2.45;;
49784;SDS011;35679;38.732;-121.358;2023-05-02T02:28:06;5.93;;;2.33;;
49784;SDS011;35679;38.732;-121.358;2023-05-02T02:30:55;2.88;;;2.00;;
49784;SDS011;35679;38.732;-121.358;2023-05-02T02:33:45;3.58;;;2.42;;
49784;SDS011;35679;38.732;-121.358;2023-05-02T02:36:39;2.22;;;2.13;;
49784;SDS011;35679;38.732;-121.358;2023-05-02T02:42:45;4.13;;;2.17;;
49784;SDS011;35679;38.732;-121.358;2023-05-02T02:45:44;2.15;;;2.05;;
49784;SDS011;35679;38.732;-121.358;2023-05-02T02:48:42;2.47;;;2.22;;
49784;SDS011;35679;38.732;-121.358;2023-05-02T02:51:46;2.30;;;2.10;;
49784;SDS011;35679;38.732;-121.358;2023-05-02T02:54:46;3.00;;;2.20;;
49784;SDS011;35679;38.732;-121.358;2023-05-02T02:57:46;3.65;;;2.30;;
49784;SDS011;35679;38.732;-121.358;2023-05-02T03:00:49;2.47;;;2.22;;
49784;SDS011;35679;38.732;-121.358;2023-05-02T03:03:41;2.97;;;2.08;;
49784;SDS011;35679;38.732;-121.358;2023-05-02T03:06:32;2.60;;;2.40;;
49784;SDS011;35679;38.732;-121.358;2023-05-02T03:09:21;2.60;;;2.10;;
49784;SDS011;35679;38.732;-121.358;2023-05-02T03:12:11;2.00;;;1.90;;
49784;SDS011;35679;38.732;-121.358;2023-05-02T03:18:30;2.63;;;2.03;;
49784;SDS011;35679;38.732;-121.358;2023-05-02T03:21:21;2.00;;;1.90;;
49784;SDS011;35679;38.732;-121.358;2023-05-02T03:24:11;2.25;;;2.15;;
49784;SDS011;35679;38.732;-121.358;2023-05-02T03:27:04;1.88;;;1.77;;
49784;SDS011;35679;38.732;-121.358;2023-05-02T03:29:59;3.00;;;2.08;;
49784;SDS011;35679;38.732;-121.358;2023-05-02T03:32:51;2.58;;;2.38;;
49784;SDS011;35679;38.732;-121.358;2023-05-02T03:35:40;1.90;;;1.80;;
49784;SDS011;35679;38.732;-121.358;2023-05-02T03:38:31;2.22;;;2.00;;
49784;SDS011;35679;38.732;-121.358;2023-05-02T03:41:25;2.53;;;2.25;;
49784;SDS011;35679;38.732;-121.358;2023-05-02T03:44:21;2.30;;;2.10;;
49784;SDS011;35679;38.732;-121.358;2023-05-02T03:47:11;2.22;;;1.98;;
49784;SDS011;35679;38.732;-121.358;2023-05-02T03:50:02;2.00;;;1.90;;
49784;SDS011;35679;38.732;-121.358;2023-05-02T03:52:53;2.08;;;1.98;;
49784;SDS011;35679;38.732;-121.358;2023-05-02T03:55:52;2.40;;;2.00;;
49784;SDS011;35679;38.732;-121.358;2023-05-02T03:58:50;2.50;;;2.30;;
49784;SDS011;35679;38.732;-121.358;2023-05-02T04:01:43;2.20;;;2.10;;
49784;SDS011;35679;38.732;-121.358;2023-05-02T04:04:33;2.10;;;2.00;;
49784;SDS011;35679;38.732;-121.358;2023-05-02T04:07:24;3.17;;;2.00;;
49784;SDS011;35679;38.732;-121.358;2023-05-02T04:10:20;2.03;;;1.90;;
49784;SDS011;35679;38.732;-121.358;2023-05-02T04:13:14;2.80;;;1.80;;
49784;SDS011;35679;38.732;-121.358;2023-05-02T04:16:06;2.33;;;2.13;;
49784;SDS011;35679;38.732;-121.358;2023-05-02T04:18:57;3.25;;;1.92;;
49784;SDS011;35679;38.732;-121.358;2023-05-02T04:21:48;2.75;;;2.05;;
49784;SDS011;35679;38.732;-121.358;2023-05-02T04:24:37;2.03;;;1.83;;
49784;SDS011;35679;38.732;-121.358;2023-05-02T04:27:27;1.98;;;1.88;;
49784;SDS011;35679;38.732;-121.358;2023-05-02T04:30:17;2.00;;;1.90;;
49784;SDS011;35679;38.732;-121.358;2023-05-02T04:33:16;2.05;;;1.95;;
49784;SDS011;35679;38.732;-121.358;2023-05-02T04:36:07;1.90;;;1.80;;
49784;SDS011;35679;38.732;-121.358;2023-05-02T04:39:02;3.30;;;2.00;;
49784;SDS011;35679;38.732;-121.358;2023-05-02T04:41:53;1.80;;;1.70;;
49784;SDS011;35679;38.732;-121.358;2023-05-02T04:44:45;3.38;;;2.00;;
49784;SDS011;35679;38.732;-121.358;2023-05-02T04:47:36;2.88;;;1.83;;
49784;SDS011;35679;38.732;-121.358;2023-05-02T04:50:25;2.20;;;2.00;;
49784;SDS011;35679;38.732;-121.358;2023-05-02T04:53:16;2.83;;;2.10;;
49784;SDS011;35679;38.732;-121.358;2023-05-02T04:56:06;2.58;;;2.15;;
49784;SDS011;35679;38.732;-121.358;2023-05-02T04:58:57;2.10;;;2.00;;
49784;SDS011;35679;38.732;-121.358;2023-05-02T05:01:47;2.85;;;2.20;;
49784;SDS011;35679;38.732;-121.358;2023-05-02T05:04:37;2.72;;;2.05;;
49784;SDS011;35679;38.732;-121.358;2023-05-02T05:07:26;2.20;;;2.10;;
49784;SDS011;35679;38.732;-121.358;2023-05-02T05:10:16;2.00;;;1.90;;
49784;SDS011;35679;38.732;-121.358;2023-05-02T05:13:06;2.10;;;2.00;;
49784;SDS011;35679;38.732;-121.358;2023-05-02T05:15:55;2.03;;;1.92;;
49784;SDS011;35679;38.732;-121.358;2023-05-02T05:21:37;2.58;;;1.90;;
49784;SDS011;35679;38.732;-121.358;2023-05-02T05:24:28;2.47;;;2.20;;
49784;SDS011;35679;38.732;-121.358;2023-05-02T05:27:18;2.25;;;2.05;;
49784;SDS011;35679;38.732;-121.358;2023-05-02T05:30:09;2.22;;;2.00;;
49784;SDS011;35679;38.732;-121.358;2023-05-02T05:33:00;2.03;;;1.88;;
49784;SDS011;35679;38.732;-121.358;2023-05-02T05:35:50;2.72;;;2.05;;
49784;SDS011;35679;38.732;-121.358;2023-05-02T05:38:40;3.85;;;2.00;;
49784;SDS011;35679;38.732;-121.358;2023-05-02T05:41:30;2.53;;;2.25;;
49784;SDS011;35679;38.732;-121.358;2023-05-02T05:44:24;2.17;;;2.05;;
49784;SDS011;35679;38.732;-121.358;2023-05-02T05:47:19;2.95;;;2.10;;
49784;SDS011;35679;38.732;-121.358;2023-05-02T05:50:12;3.20;;;1.98;;
49784;SDS011;35679;38.732;-121.358;2023-05-02T05:53:02;1.95;;;1.80;;
49784;SDS011;35679;38.732;-121.358;2023-05-02T05:55:52;2.05;;;1.95;;
49784;SDS011;35679;38.732;-121.358;2023-05-02T05:58:42;2.50;;;2.30;;
49784;SDS011;35679;38.732;-121.358;2023-05-02T06:01:33;2.08;;;1.98;;
49784;SDS011;35679;38.732;-121.358;2023-05-02T06:04:24;2.55;;;2.35;;
49784;SDS011;35679;38.732;-121.358;2023-05-02T06:07:14;2.00;;;1.90;;
49784;SDS011;35679;38.732;-121.358;2023-05-02T06:10:04;2.20;;;2.00;;
49784;SDS011;35679;38.732;-121.358;2023-05-02T06:12:54;1.83;;;1.80;;
49784;SDS011;35679;38.732;-121.358;2023-05-02T06:15:49;1.90;;;1.80;;
49784;SDS011;35679;38.732;-121.358;2023-05-02T06:18:38;1.85;;;1.75;;
49784;SDS011;35679;38.732;-121.358;2023-05-02T06:21:28;2.22;;;2.13;;
49784;SDS011;35679;38.732;-121.358;2023-05-02T06:24:17;2.20;;;2.10;;
49784;SDS011;35679;38.732;-121.358;2023-05-02T06:27:06;2.35;;;2.10;;
49784;SDS011;35679;38.732;-121.358;2023-05-02T06:29:55;2.70;;;2.00;;
49784;SDS011;35679;38.732;-121.358;2023-05-02T06:32:45;3.85;;;2.00;;
49784;SDS011;35679;38.732;-121.358;2023-05-02T06:35:35;3.22;;;2.17;;
49784;SDS011;35679;38.732;-121.358;2023-05-02T06:38:24;2.45;;;2.00;;
49784;SDS011;35679;38.732;-121.358;2023-05-02T06:41:13;2.30;;;2.20;;
49784;SDS011;35679;38.732;-121.358;2023-05-02T06:44:04;2.30;;;2.00;;
49784;SDS011;35679;38.732;-121.358;2023-05-02T06:46:54;2.28;;;1.90;;
49784;SDS011;35679;38.732;-121.358;2023-05-02T06:49:43;2.47;;;2.20;;
49784;SDS011;35679;38.732;-121.358;2023-05-02T06:52:33;2.22;;;1.95;;
49784;SDS011;35679;38.732;-121.358;2023-05-02T06:55:22;2.10;;;2.00;;
49784;SDS011;35679;38.732;-121.358;2023-05-02T06:58:12;2.35;;;2.10;;
49784;SDS011;35679;38.732;-121.358;2023-05-02T07:01:01;1.95;;;1.80;;
49784;SDS011;35679;38.732;-121.358;2023-05-02T07:03:50;2.30;;;2.10;;
49784;SDS011;35679;38.732;-121.358;2023-05-02T07:06:40;2.20;;;2.00;;
49784;SDS011;35679;38.732;-121.358;2023-05-02T07:09:29;2.30;;;2.10;;
49784;SDS011;35679;38.732;-121.358;2023-05-02T07:12:19;2.40;;;2.20;;
49784;SDS011;35679;38.732;-121.358;2023-05-02T07:15:08;3.17;;;2.33;;
49784;SDS011;35679;38.732;-121.358;2023-05-02T07:17:58;2.30;;;2.13;;
49784;SDS011;35679;38.732;-121.358;2023-05-02T07:20:48;2.17;;;2.00;;
49784;SDS011;35679;38.732;-121.358;2023-05-02T07:23:37;2.33;;;2.20;;
49784;SDS011;35679;38.732;-121.358;2023-05-02T07:26:26;2.28;;;2.00;;
49784;SDS011;35679;38.732;-121.358;2023-05-02T07:29:16;3.33;;;2.17;;
49784;SDS011;35679;38.732;-121.358;2023-05-02T07:32:05;1.83;;;1.73;;
49784;SDS011;35679;38.732;-121.358;2023-05-02T07:34:55;2.58;;;2.25;;
49784;SDS011;35679;38.732;-121.358;2023-05-02T07:37:44;2.30;;;2.10;;
49784;SDS011;35679;38.732;-121.358;2023-05-02T07:40:33;2.50;;;2.30;;
49784;SDS011;35679;38.732;-121.358;2023-05-02T07:43:23;3.97;;;2.00;;
49784;SDS011;35679;38.732;-121.358;2023-05-02T07:46:12;2.65;;;2.35;;
49784;SDS011;35679;38.732;-121.358;2023-05-02T07:49:02;2.10;;;2.00;;
49784;SDS011;35679;38.732;-121.358;2023-05-02T07:51:51;2.15;;;2.05;;
49784;SDS011;35679;38.732;-121.358;2023-05-02T07:54:40;2.25;;;2.05;;
49784;SDS011;35679;38.732;-121.358;2023-05-02T07:57:30;2.20;;;2.10;;
49784;SDS011;35679;38.732;-121.358;2023-05-02T08:00:19;2.20;;;2.08;;
49784;SDS011;35679;38.732;-121.358;2023-05-02T08:03:08;2.17;;;1.95;;
49784;SDS011;35679;38.732;-121.358;2023-05-02T08:05:58;3.28;;;2.30;;
49784;SDS011;35679;38.732;-121.358;2023-05-02T08:08:49;2.00;;;1.90;;
49784;SDS011;35679;38.732;-121.358;2023-05-02T08:11:39;2.08;;;1.98;;
49784;SDS011;35679;38.732;-121.358;2023-05-02T08:14:28;2.50;;;2.40;;
49784;SDS011;35679;38.732;-121.358;2023-05-02T08:17:17;3.30;;;2.17;;
49784;SDS011;35679;38.732;-121.358;2023-05-02T08:20:07;2.78;;;2.10;;
49784;SDS011;35679;38.732;-121.358;2023-05-02T08:22:56;2.47;;;2.10;;
49784;SDS011;35679;38.732;-121.358;2023-05-02T08:25:46;2.15;;;2.05;;
49784;SDS011;35679;38.732;-121.358;2023-05-02T08:28:36;2.50;;;2.25;;
49784;SDS011;35679;38.732;-121.358;2023-05-02T08:31:25;2.00;;;1.90;;
49784;SDS011;35679;38.732;-121.358;2023-05-02T08:34:15;2.33;;;2.15;;
49784;SDS011;35679;38.732;-121.358;2023-05-02T08:37:08;2.38;;;2.28;;
49784;SDS011;35679;38.732;-121.358;2023-05-02T08:39:59;2.25;;;2.15;;
49784;SDS011;35679;38.732;-121.358;2023-05-02T08:42:49;2.78;;;2.25;;
49784;SDS011;35679;38.732;-121.358;2023-05-02T08:45:41;2.20;;;2.10;;
49784;SDS011;35679;38.732;-121.358;2023-05-02T08:48:31;3.40;;;1.90;;
49784;SDS011;35679;38.732;-121.358;2023-05-02T08:51:23;3.03;;;2.10;;
49784;SDS011;35679;38.732;-121.358;2023-05-02T08:54:15;2.05;;;2.00;;
49784;SDS011;35679;38.732;-121.358;2023-05-02T08:57:05;2.47;;;2.25;;
49784;SDS011;35679;38.732;-121.358;2023-05-02T08:59:54;2.63;;;2.28;;
49784;SDS011;35679;38.732;-121.358;2023-05-02T09:02:49;2.40;;;2.15;;
49784;SDS011;35679;38.732;-121.358;2023-05-02T09:05:51;1.73;;;1.73;;
49784;SDS011;35679;38.732;-121.358;2023-05-02T09:08:43;2.20;;;2.10;;
49784;SDS011;35679;38.732;-121.358;2023-05-02T09:11:33;2.60;;;2.20;;
49784;SDS011;35679;38.732;-121.358;2023-05-02T09:14:22;3.13;;;2.25;;
49784;SDS011;35679;38.732;-121.358;2023-05-02T09:17:12;1.90;;;1.80;;
49784;SDS011;35679;38.732;-121.358;2023-05-02T09:20:01;2.25;;;1.90;;
49784;SDS011;35679;38.732;-121.358;2023-05-02T09:22:51;2.53;;;2.20;;
49784;SDS011;35679;38.732;-121.358;2023-05-02T09:25:41;2.17;;;2.08;;
49784;SDS011;35679;38.732;-121.358;2023-05-02T09:28:40;2.10;;;2.00;;
49784;SDS011;35679;38.732;-121.358;2023-05-02T09:31:34;2.33;;;2.13;;
49784;SDS011;35679;38.732;-121.358;2023-05-02T09:34:32;2.10;;;2.00;;
49784;SDS011;35679;38.732;-121.358;2023-05-02T09:37:33;2.40;;;2.30;;
49784;SDS011;35679;38.732;-121.358;2023-05-02T09:40:23;2.10;;;2.00;;
49784;SDS011;35679;38.732;-121.358;2023-05-02T09:43:13;2.42;;;2.20;;
49784;SDS011;35679;38.732;-121.358;2023-05-02T09:46:09;2.08;;;1.98;;
49784;SDS011;35679;38.732;-121.358;2023-05-02T09:48:59;2.35;;;2.20;;
49784;SDS011;35679;38.732;-121.358;2023-05-02T09:51:48;2.35;;;2.15;;
49784;SDS011;35679;38.732;-121.358;2023-05-02T09:54:37;2.42;;;2.33;;
49784;SDS011;35679;38.732;-121.358;2023-05-02T09:57:39;2.67;;;2.38;;
49784;SDS011;35679;38.732;-121.358;2023-05-02T10:00:43;2.30;;;2.17;;
49784;SDS011;35679;38.732;-121.358;2023-05-02T10:03:35;3.25;;;2.10;;
49784;SDS011;35679;38.732;-121.358;2023-05-02T10:06:25;2.30;;;2.10;;
49784;SDS011;35679;38.732;-121.358;2023-05-02T10:09:15;3.60;;;2.20;;
49784;SDS011;35679;38.732;-121.358;2023-05-02T10:12:08;2.92;;;2.05;;
49784;SDS011;35679;38.732;-121.358;2023-05-02T10:14:59;2.38;;;2.28;;
49784;SDS011;35679;38.732;-121.358;2023-05-02T10:17:52;2.10;;;2.00;;
49784;SDS011;35679;38.732;-121.358;2023-05-02T10:20:47;2.28;;;2.15;;
49784;SDS011;35679;38.732;-121.358;2023-05-02T10:23:44;2.10;;;2.00;;
49784;SDS011;35679;38.732;-121.358;2023-05-02T10:26:33;2.50;;;2.40;;
49784;SDS011;35679;38.732;-121.358;2023-05-02T10:29:26;1.98;;;1.88;;
49784;SDS011;35679;38.732;-121.358;2023-05-02T10:32:19;1.80;;;1.70;;
49784;SDS011;35679;38.732;-121.358;2023-05-02T10:35:10;2.60;;;1.98;;
49784;SDS011;35679;38.732;-121.358;2023-05-02T10:38:00;2.20;;;2.10;;
49784;SDS011;35679;38.732;-121.358;2023-05-02T10:41:00;2.40;;;2.13;;
49784;SDS011;35679;38.732;-121.358;2023-05-02T10:43:56;2.20;;;2.10;;
49784;SDS011;35679;38.732;-121.358;2023-05-02T10:46:46;2.88;;;2.20;;
49784;SDS011;35679;38.732;-121.358;2023-05-02T10:49:40;2.40;;;2.20;;
49784;SDS011;35679;38.732;-121.358;2023-05-02T10:52:41;2.05;;;2.00;;
49784;SDS011;35679;38.732;-121.358;2023-05-02T10:55:31;2.20;;;2.10;;
49784;SDS011;35679;38.732;-121.358;2023-05-02T10:58:20;2.00;;;2.00;;
49784;SDS011;35679;38.732;-121.358;2023-05-02T11:04:24;2.35;;;2.15;;
49784;SDS011;35679;38.732;-121.358;2023-05-02T11:07:17;2.40;;;2.30;;
49784;SDS011;35679;38.732;-121.358;2023-05-02T11:13:05;2.17;;;2.08;;
49784;SDS011;35679;38.732;-121.358;2023-05-02T11:15:55;2.28;;;2.05;;
49784;SDS011;35679;38.732;-121.358;2023-05-02T11:18:57;2.03;;;1.92;;
49784;SDS011;35679;38.732;-121.358;2023-05-02T11:21:48;2.80;;;1.92;;
49784;SDS011;35679;38.732;-121.358;2023-05-02T11:24:41;2.05;;;1.95;;
49784;SDS011;35679;38.732;-121.358;2023-05-02T11:27:37;2.10;;;2.00;;
49784;SDS011;35679;38.732;-121.358;2023-05-02T11:30:39;2.40;;;2.30;;
49784;SDS011;35679;38.732;-121.358;2023-05-02T11:33:35;2.20;;;2.10;;
49784;SDS011;35679;38.732;-121.358;2023-05-02T11:36:34;2.30;;;2.20;;
49784;SDS011;35679;38.732;-121.358;2023-05-02T11:39:24;2.30;;;2.20;;
49784;SDS011;35679;38.732;-121.358;2023-05-02T11:42:29;2.00;;;1.90;;
49784;SDS011;35679;38.732;-121.358;2023-05-02T11:45:19;2.40;;;2.30;;
49784;SDS011;35679;38.732;-121.358;2023-05-02T11:48:13;2.55;;;2.35;;
49784;SDS011;35679;38.732;-121.358;2023-05-02T11:51:04;2.40;;;2.30;;
49784;SDS011;35679;38.732;-121.358;2023-05-02T11:53:54;1.92;;;1.92;;
49784;SDS011;35679;38.732;-121.358;2023-05-02T11:56:44;2.38;;;2.28;;
49784;SDS011;35679;38.732;-121.358;2023-05-02T12:02:45;2.25;;;2.15;;
49784;SDS011;35679;38.732;-121.358;2023-05-02T12:05:36;2.00;;;2.00;;
49784;SDS011;35679;38.732;-121.358;2023-05-02T12:08:26;2.28;;;2.17;;
49784;SDS011;35679;38.732;-121.358;2023-05-02T12:11:17;2.15;;;2.05;;
49784;SDS011;35679;38.732;-121.358;2023-05-02T12:14:06;2.40;;;2.30;;
49784;SDS011;35679;38.732;-121.358;2023-05-02T12:16:57;2.80;;;2.70;;
49784;SDS011;35679;38.732;-121.358;2023-05-02T12:19:47;2.10;;;2.10;;
49784;SDS011;35679;38.732;-121.358;2023-05-02T12:22:37;2.50;;;2.30;;
49784;SDS011;35679;38.732;-121.358;2023-05-02T12:25:27;1.90;;;1.80;;
49784;SDS011;35679;38.732;-121.358;2023-05-02T12:28:17;3.17;;;2.00;;
49784;SDS011;35679;38.732;-121.358;2023-05-02T12:31:09;2.05;;;1.88;;
49784;SDS011;35679;38.732;-121.358;2023-05-02T12:33:59;1.95;;;1.85;;
49784;SDS011;35679;38.732;-121.358;2023-05-02T12:36:52;2.10;;;2.00;;
49784;SDS011;35679;38.732;-121.358;2023-05-02T12:39:41;2.10;;;2.00;;
49784;SDS011;35679;38.732;-121.358;2023-05-02T12:42:31;1.90;;;1.90;;
49784;SDS011;35679;38.732;-121.358;2023-05-02T12:45:22;2.20;;;2.00;;
49784;SDS011;35679;38.732;-121.358;2023-05-02T12:48:24;2.10;;;2.00;;
49784;SDS011;35679;38.732;-121.358;2023-05-02T12:51:24;1.90;;;1.80;;
49784;SDS011;35679;38.732;-121.358;2023-05-02T12:54:22;2.05;;;1.98;;
49784;SDS011;35679;38.732;-121.358;2023-05-02T12:57:24;2.13;;;2.00;;
49784;SDS011;35679;38.732;-121.358;2023-05-02T13:00:15;1.60;;;1.60;;
49784;SDS011;35679;38.732;-121.358;2023-05-02T13:03:05;1.98;;;1.88;;
49784;SDS011;35679;38.732;-121.358;2023-05-02T13:05:55;1.90;;;1.80;;
49784;SDS011;35679;38.732;-121.358;2023-05-02T13:08:45;1.75;;;1.70;;
49784;SDS011;35679;38.732;-121.358;2023-05-02T13:11:34;1.90;;;1.80;;
49784;SDS011;35679;38.732;-121.358;2023-05-02T13:14:24;1.70;;;1.70;;
49784;SDS011;35679;38.732;-121.358;2023-05-02T13:17:13;2.08;;;1.98;;
49784;SDS011;35679;38.732;-121.358;2023-05-02T13:20:03;2.33;;;1.90;;
49784;SDS011;35679;38.732;-121.358;2023-05-02T13:22:53;1.80;;;1.80;;
49784;SDS011;35679;38.732;-121.358;2023-05-02T13:25:43;1.73;;;1.73;;
49784;SDS011;35679;38.732;-121.358;2023-05-02T13:28:32;2.25;;;1.80;;
49784;SDS011;35679;38.732;-121.358;2023-05-02T13:31:23;1.80;;;1.80;;
49784;SDS011;35679;38.732;-121.358;2023-05-02T13:34:12;1.80;;;1.70;;
49784;SDS011;35679;38.732;-121.358;2023-05-02T13:37:01;1.80;;;1.70;;
49784;SDS011;35679;38.732;-121.358;2023-05-02T13:39:51;1.60;;;1.60;;
49784;SDS011;35679;38.732;-121.358;2023-05-02T13:42:40;2.67;;;1.70;;
49784;SDS011;35679;38.732;-121.358;2023-05-02T13:45:30;1.65;;;1.55;;
49784;SDS011;35679;38.732;-121.358;2023-05-02T13:48:22;1.60;;;1.60;;
49784;SDS011;35679;38.732;-121.358;2023-05-02T13:51:12;1.60;;;1.60;;
49784;SDS011;35679;38.732;-121.358;2023-05-02T13:54:02;1.52;;;1.52;;
49784;SDS011;35679;38.732;-121.358;2023-05-02T13:56:51;1.60;;;1.50;;
49784;SDS011;35679;38.732;-121.358;2023-05-02T13:59:40;1.50;;;1.50;;
49784;SDS011;35679;38.732;-121.358;2023-05-02T14:02:30;2.17;;;1.63;;
49784;SDS011;35679;38.732;-121.358;2023-05-02T14:05:19;1.48;;;1.48;;
49784;SDS011;35679;38.732;-121.358;2023-05-02T14:08:09;1.60;;;1.50;;
49784;SDS011;35679;38.732;-121.358;2023-05-02T14:10:59;1.40;;;1.40;;
49784;SDS011;35679;38.732;-121.358;2023-05-02T14:13:51;1.73;;;1.63;;
49784;SDS011;35679;38.732;-121.358;2023-05-02T14:16:40;1.60;;;1.60;;
49784;SDS011;35679;38.732;-121.358;2023-05-02T14:19:30;1.50;;;1.50;;
49784;SDS011;35679;38.732;-121.358;2023-05-02T14:22:19;1.83;;;1.70;;
49784;SDS011;35679;38.732;-121.358;2023-05-02T14:25:09;1.60;;;1.50;;
49784;SDS011;35679;38.732;-121.358;2023-05-02T14:28:01;1.65;;;1.55;;
49784;SDS011;35679;38.732;-121.358;2023-05-02T14:30:51;1.48;;;1.48;;
49784;SDS011;35679;38.732;-121.358;2023-05-02T14:33:40;1.48;;;1.48;;
49784;SDS011;35679;38.732;-121.358;2023-05-02T14:36:29;1.80;;;1.70;;
49784;SDS011;35679;38.732;-121.358;2023-05-02T14:39:19;1.40;;;1.40;;
49784;SDS011;35679;38.732;-121.358;2023-05-02T14:42:08;1.48;;;1.48;;
49784;SDS011;35679;38.732;-121.358;2023-05-02T14:44:57;1.48;;;1.48;;
49784;SDS011;35679;38.732;-121.358;2023-05-02T14:47:49;1.60;;;1.60;;
49784;SDS011;35679;38.732;-121.358;2023-05-02T14:50:39;1.40;;;1.40;;
49784;SDS011;35679;38.732;-121.358;2023-05-02T14:53:29;1.73;;;1.70;;
49784;SDS011;35679;38.732;-121.358;2023-05-02T14:56:18;1.70;;;1.63;;
49784;SDS011;35679;38.732;-121.358;2023-05-02T14:59:08;1.70;;;1.60;;
49784;SDS011;35679;38.732;-121.358;2023-05-02T15:01:57;2.50;;;2.03;;
49784;SDS011;35679;38.732;-121.358;2023-05-02T15:04:47;1.40;;;1.40;;
49784;SDS011;35679;38.732;-121.358;2023-05-02T15:07:37;1.73;;;1.58;;
49784;SDS011;35679;38.732;-121.358;2023-05-02T15:10:26;1.40;;;1.40;;
49784;SDS011;35679;38.732;-121.358;2023-05-02T15:13:16;1.50;;;1.40;;
49784;SDS011;35679;38.732;-121.358;2023-05-02T15:16:05;1.50;;;1.50;;
49784;SDS011;35679;38.732;-121.358;2023-05-02T15:18:55;1.50;;;1.50;;
49784;SDS011;35679;38.732;-121.358;2023-05-02T15:21:45;1.77;;;1.67;;
49784;SDS011;35679;38.732;-121.358;2023-05-02T15:24:34;1.70;;;1.60;;
49784;SDS011;35679;38.732;-121.358;2023-05-02T15:27:23;1.60;;;1.60;;
49784;SDS011;35679;38.732;-121.358;2023-05-02T15:30:13;1.60;;;1.50;;
49784;SDS011;35679;38.732;-121.358;2023-05-02T15:33:04;1.70;;;1.60;;
49784;SDS011;35679;38.732;-121.358;2023-05-02T15:35:54;1.60;;;1.60;;
49784;SDS011;35679;38.732;-121.358;2023-05-02T15:38:48;1.70;;;1.70;;
49784;SDS011;35679;38.732;-121.358;2023-05-02T15:41:38;1.40;;;1.40;;
49784;SDS011;35679;38.732;-121.358;2023-05-02T15:44:27;1.50;;;1.50;;
49784;SDS011;35679;38.732;-121.358;2023-05-02T15:47:16;1.50;;;1.50;;
49784;SDS011;35679;38.732;-121.358;2023-05-02T15:50:08;1.50;;;1.50;;
49784;SDS011;35679;38.732;-121.358;2023-05-02T15:52:58;1.67;;;1.67;;
49784;SDS011;35679;38.732;-121.358;2023-05-02T15:55:48;1.40;;;1.40;;
49784;SDS011;35679;38.732;-121.358;2023-05-02T15:58:38;1.50;;;1.50;;
49784;SDS011;35679;38.732;-121.358;2023-05-02T16:01:28;1.70;;;1.60;;
49784;SDS011;35679;38.732;-121.358;2023-05-02T16:04:17;1.60;;;1.60;;
49784;SDS011;35679;38.732;-121.358;2023-05-02T16:07:07;1.63;;;1.52;;
49784;SDS011;35679;38.732;-121.358;2023-05-02T16:09:57;1.63;;;1.60;;
49784;SDS011;35679;38.732;-121.358;2023-05-02T16:12:47;1.63;;;1.63;;
49784;SDS011;35679;38.732;-121.358;2023-05-02T16:15:37;1.70;;;1.60;;
49784;SDS011;35679;38.732;-121.358;2023-05-02T16:18:26;1.48;;;1.48;;
49784;SDS011;35679;38.732;-121.358;2023-05-02T16:21:16;1.50;;;1.50;;
49784;SDS011;35679;38.732;-121.358;2023-05-02T16:24:05;1.58;;;1.58;;
49784;SDS011;35679;38.732;-121.358;2023-05-02T16:26:55;1.40;;;1.40;;
49784;SDS011;35679;38.732;-121.358;2023-05-02T16:29:44;1.50;;;1.50;;
49784;SDS011;35679;38.732;-121.358;2023-05-02T16:32:34;1.92;;;1.83;;
49784;SDS011;35679;38.732;-121.358;2023-05-02T16:35:27;1.45;;;1.45;;
49784;SDS011;35679;38.732;-121.358;2023-05-02T16:38:16;1.40;;;1.40;;
49784;SDS011;35679;38.732;-121.358;2023-05-02T16:41:06;1.50;;;1.50;;
49784;SDS011;35679;38.732;-121.358;2023-05-02T16:43:56;1.50;;;1.50;;
49784;SDS011;35679;38.732;-121.358;2023-05-02T16:46:47;1.50;;;1.50;;
49784;SDS011;35679;38.732;-121.358;2023-05-02T16:49:36;1.67;;;1.67;;
49784;SDS011;35679;38.732;-121.358;2023-05-02T16:52:26;1.50;;;1.40;;
49784;SDS011;35679;38.732;-121.358;2023-05-02T16:55:16;1.50;;;1.50;;
49784;SDS011;35679;38.732;-121.358;2023-05-02T16:58:05;1.58;;;1.50;;
49784;SDS011;35679;38.732;-121.358;2023-05-02T17:00:55;1.60;;;1.60;;